createdAt,value
2022-11-07T00:02:14.457Z,9.82
2022-11-07T00:04:42.381Z,9.81
2022-11-07T00:07:12.429Z,9.80
2022-11-07T00:09:40.179Z,9.79
2022-11-07T00:12:10.214Z,9.80
2022-11-07T00:14:38.153Z,9.79
2022-11-07T00:17:09.447Z,9.77
2022-11-07T00:19:37.198Z,9.76
2022-11-07T00:22:04.988Z,9.76
2022-11-07T00:24:32.730Z,9.77
2022-11-07T00:27:00.489Z,9.78
2022-11-07T00:29:28.247Z,9.79
2022-11-07T00:31:55.976Z,9.81
2022-11-07T00:34:26.545Z,9.82
2022-11-07T00:36:54.250Z,9.83
2022-11-07T00:39:21.916Z,9.85
2022-11-07T00:41:49.708Z,9.85
2022-11-07T00:44:17.539Z,9.86
2022-11-07T00:46:45.427Z,9.87
2022-11-07T00:49:13.125Z,9.88
2022-11-07T00:51:43.285Z,9.88
2022-11-07T00:54:11.175Z,9.88
2022-11-07T00:56:38.900Z,9.88
2022-11-07T00:59:06.707Z,9.89
2022-11-07T01:01:37.364Z,9.89
2022-11-07T01:04:24.359Z,9.91
2022-11-07T01:06:52.212Z,9.92
2022-11-07T01:09:22.471Z,9.93
2022-11-07T01:11:52.376Z,9.94
2022-11-07T01:14:24.375Z,9.95
2022-11-07T01:16:52.101Z,9.96
2022-11-07T01:19:19.981Z,9.97
2022-11-07T01:21:47.810Z,9.98
2022-11-07T01:24:17.708Z,9.98
2022-11-07T01:26:52.189Z,9.99
2022-11-07T01:29:19.952Z,10.00
2022-11-07T01:31:48.967Z,10.01
2022-11-07T01:34:18.354Z,10.01
2022-11-07T01:36:46.232Z,10.02
2022-11-07T01:39:14.097Z,10.01
2022-11-07T01:41:41.932Z,9.99
2022-11-07T01:44:09.585Z,9.95
2022-11-07T01:46:44.676Z,9.91
2022-11-07T01:49:40.971Z,9.87
2022-11-07T01:52:26.707Z,9.83
2022-11-07T01:55:00.228Z,9.79
2022-11-07T01:57:38.854Z,9.76
2022-11-07T02:00:11.416Z,9.73
2022-11-07T02:02:42.079Z,9.68
2022-11-07T02:05:16.812Z,9.63
2022-11-07T02:07:44.518Z,9.59
2022-11-07T02:10:14.542Z,9.55
2022-11-07T02:12:44.850Z,9.52
2022-11-07T02:15:12.685Z,9.48
2022-11-07T02:17:40.549Z,9.45
2022-11-07T02:20:08.757Z,9.41
2022-11-07T02:23:10.734Z,9.36
2022-11-07T02:25:41.847Z,9.32
2022-11-07T02:28:12.439Z,9.29
2022-11-07T02:30:40.217Z,9.26
2022-11-07T02:33:21.685Z,9.22
2022-11-07T02:35:52.827Z,9.18
2022-11-07T02:38:32.974Z,9.14
2022-11-07T02:41:10.364Z,9.11
2022-11-07T02:43:43.634Z,9.07
2022-11-07T02:46:14.639Z,9.02
2022-11-07T02:48:48.378Z,8.99
2022-11-07T02:51:18.557Z,8.96
2022-11-07T02:53:48.596Z,8.93
2022-11-07T02:56:18.428Z,8.89
2022-11-07T02:58:47.473Z,8.86
2022-11-07T03:01:17.674Z,8.84
2022-11-07T03:03:49.827Z,8.81
2022-11-07T03:06:20.851Z,8.78
2022-11-07T03:08:48.733Z,8.77
2022-11-07T03:11:21.677Z,8.74
2022-11-07T03:13:54.206Z,8.72
2022-11-07T03:16:24.038Z,8.70
2022-11-07T03:18:51.733Z,8.67
2022-11-07T03:21:21.531Z,8.65
2022-11-07T03:23:49.230Z,8.62
2022-11-07T03:26:17.031Z,8.59
2022-11-07T03:28:44.759Z,8.56
2022-11-07T03:31:12.497Z,8.54
2022-11-07T03:33:40.208Z,8.52
2022-11-07T03:36:08.313Z,8.52
2022-11-07T03:38:36.034Z,8.50
2022-11-07T03:41:03.801Z,8.49
2022-11-07T03:43:31.497Z,8.48
2022-11-07T03:45:59.188Z,8.48
2022-11-07T03:48:26.884Z,8.48
2022-11-07T03:50:54.678Z,8.48
2022-11-07T03:53:25.541Z,8.49
2022-11-07T03:55:58.309Z,8.49
2022-11-07T03:58:27.427Z,8.49
2022-11-07T04:00:55.153Z,8.49
2022-11-07T04:03:22.872Z,8.48
2022-11-07T04:05:50.605Z,8.49
2022-11-07T04:08:19.370Z,8.48
2022-11-07T04:10:47.336Z,8.48
2022-11-07T04:13:35.754Z,8.48
2022-11-07T04:16:22.627Z,8.48
2022-11-07T04:18:50.351Z,8.48
2022-11-07T04:21:18.057Z,8.48
2022-11-07T04:23:46.530Z,8.48
2022-11-07T04:26:33.410Z,8.48
2022-11-07T04:29:01.179Z,8.48
2022-11-07T04:31:28.937Z,8.47
2022-11-07T04:33:56.875Z,8.48
2022-11-07T04:36:24.589Z,8.48
2022-11-07T04:38:52.287Z,8.49
2022-11-07T04:41:23.510Z,8.49
2022-11-07T04:43:51.226Z,8.49
2022-11-07T04:46:19.086Z,8.48
2022-11-07T04:48:46.808Z,8.46
2022-11-07T04:51:21.387Z,8.46
2022-11-07T04:53:49.082Z,8.46
2022-11-07T04:56:16.999Z,8.46
2022-11-07T04:58:44.693Z,8.48
2022-11-07T05:01:12.578Z,8.49
2022-11-07T05:03:42.064Z,8.51
2022-11-07T05:06:15.837Z,8.52
2022-11-07T05:08:43.551Z,8.54
2022-11-07T05:11:13.894Z,8.56
2022-11-07T05:13:41.647Z,8.57
2022-11-07T05:16:19.757Z,8.59
2022-11-07T05:18:47.501Z,8.61
2022-11-07T05:21:15.279Z,8.62
2022-11-07T05:23:45.427Z,8.62
2022-11-07T05:26:13.131Z,8.64
2022-11-07T05:28:43.054Z,8.67
2022-11-07T05:31:19.287Z,8.73
2022-11-07T05:33:47.053Z,8.77
2022-11-07T05:36:19.437Z,8.81
2022-11-07T05:38:50.324Z,8.85
2022-11-07T05:41:22.166Z,8.87
2022-11-07T05:43:49.935Z,8.88
2022-11-07T05:46:17.684Z,8.88
2022-11-07T05:48:45.438Z,8.91
2022-11-07T05:51:13.255Z,8.93
2022-11-07T05:53:40.982Z,8.95
2022-11-07T05:56:08.733Z,8.97
2022-11-07T05:58:37.592Z,8.99
2022-11-07T06:01:08.140Z,9.01
2022-11-07T06:03:36.082Z,9.03
2022-11-07T06:06:03.996Z,9.05
2022-11-07T06:08:31.953Z,9.06
2022-11-07T06:11:06.001Z,9.10
2022-11-07T06:13:33.788Z,9.12
2022-11-07T06:16:01.677Z,9.12
2022-11-07T06:18:29.420Z,9.11
2022-11-07T06:20:57.221Z,9.12
2022-11-07T06:23:28.011Z,9.13
2022-11-07T06:25:55.874Z,9.14
2022-11-07T06:28:23.585Z,9.14
2022-11-07T06:30:53.643Z,9.13
2022-11-07T06:33:21.402Z,9.11
2022-11-07T06:35:49.230Z,9.09
2022-11-07T06:38:17.187Z,9.07
2022-11-07T06:40:44.956Z,9.05
2022-11-07T06:43:21.068Z,9.03
2022-11-07T06:45:49.001Z,9.03
2022-11-07T06:48:16.746Z,9.03
2022-11-07T06:50:44.543Z,9.02
2022-11-07T06:53:15.101Z,9.03
2022-11-07T06:55:44.999Z,9.05
2022-11-07T06:58:12.704Z,9.08
2022-11-07T07:00:40.508Z,9.11
2022-11-07T07:03:08.382Z,9.17
2022-11-07T07:05:36.147Z,9.22
2022-11-07T07:08:08.045Z,9.28
2022-11-07T07:10:43.696Z,9.34
2022-11-07T07:13:16.722Z,9.42
2022-11-07T07:15:59.045Z,9.49
2022-11-07T07:18:27.724Z,9.55
2022-11-07T07:21:06.622Z,9.59
2022-11-07T07:23:38.578Z,9.66
2022-11-07T07:26:12.061Z,9.73
2022-11-07T07:28:42.088Z,9.83
2022-11-07T07:31:14.627Z,9.93
2022-11-07T07:33:45.896Z,10.04
2022-11-07T07:36:20.460Z,10.14
2022-11-07T07:38:53.112Z,10.27
2022-11-07T07:41:20.879Z,10.40
2022-11-07T07:43:48.695Z,10.54
2022-11-07T07:46:23.571Z,10.65
2022-11-07T07:48:51.332Z,10.75
2022-11-07T07:51:19.103Z,10.82
2022-11-07T07:53:49.467Z,10.86
2022-11-07T07:56:19.618Z,10.90
2022-11-07T07:58:47.391Z,10.96
2022-11-07T08:01:15.166Z,11.01
2022-11-07T08:04:00.710Z,11.05
2022-11-07T08:06:34.420Z,11.11
2022-11-07T08:09:02.414Z,11.17
2022-11-07T08:11:30.201Z,11.20
2022-11-07T08:14:01.318Z,11.24
2022-11-07T08:16:31.751Z,11.25
2022-11-07T08:18:59.474Z,11.27
2022-11-07T08:21:27.168Z,11.34
2022-11-07T08:23:55.015Z,11.42
2022-11-07T08:26:23.018Z,11.50
2022-11-07T08:28:55.241Z,11.54
2022-11-07T08:31:22.985Z,11.56
2022-11-07T08:33:51.008Z,11.59
2022-11-07T08:36:20.269Z,11.61
2022-11-07T08:38:47.991Z,11.64
2022-11-07T08:41:22.020Z,11.66
2022-11-07T08:43:50.428Z,11.70
2022-11-07T08:46:18.453Z,11.74
2022-11-07T08:48:46.376Z,11.74
2022-11-07T08:51:14.103Z,11.74
2022-11-07T08:53:41.828Z,11.73
2022-11-07T08:56:12.128Z,11.73
2022-11-07T08:58:39.960Z,11.74
2022-11-07T09:01:10.858Z,11.77
2022-11-07T09:03:47.841Z,11.81
2022-11-07T09:06:21.607Z,11.85
2022-11-07T09:08:49.349Z,11.89
2022-11-07T09:11:19.285Z,11.94
2022-11-07T09:13:49.920Z,11.99
2022-11-07T09:16:17.776Z,12.04
2022-11-07T09:18:50.033Z,12.06
2022-11-07T09:21:22.708Z,12.08
2022-11-07T09:23:54.790Z,12.10
2022-11-07T09:26:24.608Z,12.10
2022-11-07T09:28:56.146Z,12.09
2022-11-07T09:31:30.575Z,12.06
2022-11-07T09:33:58.289Z,12.06
2022-11-07T09:36:26.043Z,12.06
2022-11-07T09:38:56.254Z,12.06
2022-11-07T09:41:37.988Z,12.05
2022-11-07T09:44:37.477Z,12.05
2022-11-07T09:47:14.669Z,12.07
2022-11-07T09:49:59.597Z,12.08
2022-11-07T09:52:55.117Z,12.07
2022-11-07T09:55:37.094Z,12.04
2022-11-07T09:58:22.313Z,12.03
2022-11-07T10:00:50.246Z,12.01
2022-11-07T10:03:18.266Z,11.99
2022-11-07T10:06:24.198Z,11.98
2022-11-07T10:09:29.021Z,11.99
2022-11-07T10:12:05.897Z,12.03
2022-11-07T10:15:05.268Z,12.07
2022-11-07T10:17:42.933Z,12.12
2022-11-07T10:20:28.627Z,12.15
2022-11-07T10:23:40.898Z,12.17
2022-11-07T10:26:13.642Z,12.20
2022-11-07T10:28:49.166Z,12.21
2022-11-07T10:31:17.091Z,12.23
2022-11-07T10:34:00.498Z,12.26
2022-11-07T10:36:34.488Z,12.30
2022-11-07T10:39:15.875Z,12.36
2022-11-07T10:42:07.929Z,12.47
2022-11-07T10:44:39.265Z,12.57
2022-11-07T10:47:24.083Z,12.63
2022-11-07T10:50:03.234Z,12.73
2022-11-07T10:52:33.237Z,12.83
2022-11-07T10:55:19.077Z,12.87
2022-11-07T10:57:53.995Z,12.93
2022-11-07T11:00:25.678Z,12.99
2022-11-07T11:02:56.574Z,13.04
2022-11-07T11:05:32.616Z,13.10
2022-11-07T11:08:19.054Z,13.19
2022-11-07T11:10:49.778Z,13.30
2022-11-07T11:13:36.014Z,13.41
2022-11-07T11:16:26.865Z,13.52
2022-11-07T11:18:59.629Z,13.57
2022-11-07T11:21:41.923Z,13.61
2022-11-07T11:24:34.333Z,13.62
2022-11-07T11:27:26.031Z,13.61
2022-11-07T11:30:09.089Z,13.65
2022-11-07T11:32:59.668Z,13.74
2022-11-07T11:35:48.673Z,13.85
2022-11-07T11:38:31.012Z,13.90
2022-11-07T11:41:11.233Z,13.89
2022-11-07T11:43:50.545Z,13.89
2022-11-07T11:46:32.577Z,13.92
2022-11-07T11:49:26.155Z,13.92
2022-11-07T11:52:03.456Z,13.91
2022-11-07T11:54:31.215Z,13.89
2022-11-07T11:57:10.311Z,13.87
2022-11-07T11:59:55.538Z,13.84
2022-11-07T12:02:48.811Z,13.80
2022-11-07T12:05:23.924Z,13.76
2022-11-07T12:07:57.839Z,13.71
2022-11-07T12:10:54.203Z,13.66
2022-11-07T12:13:36.153Z,13.60
2022-11-07T12:16:18.731Z,13.55
2022-11-07T12:19:05.953Z,13.50
2022-11-07T12:21:53.427Z,13.43
2022-11-07T12:24:48.391Z,13.37
2022-11-07T12:27:26.723Z,13.33
2022-11-07T12:30:22.368Z,13.31
2022-11-07T12:33:08.932Z,13.27
2022-11-07T12:35:45.885Z,13.19
2022-11-07T12:38:42.206Z,13.17
2022-11-07T12:41:33.247Z,13.20
2022-11-07T12:44:35.295Z,13.22
2022-11-07T12:47:44.988Z,13.24
2022-11-07T12:50:30.039Z,13.22
2022-11-07T12:53:35.749Z,13.17
2022-11-07T12:56:19.364Z,13.11
2022-11-07T12:58:51.715Z,13.08
2022-11-07T13:01:30.117Z,13.04
2022-11-07T13:04:33.682Z,13.00
2022-11-07T13:07:27.473Z,12.97
2022-11-07T13:10:09.785Z,12.94
2022-11-07T13:12:45.006Z,12.88
2022-11-07T13:15:15.073Z,12.84
2022-11-07T13:17:47.176Z,12.81
2022-11-07T13:20:21.439Z,12.79
2022-11-07T13:22:52.866Z,12.76
2022-11-07T13:25:28.659Z,12.75
2022-11-07T13:27:56.609Z,12.72
2022-11-07T13:30:30.587Z,12.69
2022-11-07T13:33:01.399Z,12.67
2022-11-07T13:35:39.074Z,12.65
2022-11-07T13:38:23.340Z,12.64
2022-11-07T13:41:04.379Z,12.63
2022-11-07T13:43:54.374Z,12.62
2022-11-07T13:46:37.894Z,12.59
2022-11-07T13:49:31.431Z,12.57
2022-11-07T13:52:10.279Z,12.56
2022-11-07T13:55:04.975Z,12.54
2022-11-07T13:57:42.717Z,12.52
2022-11-07T14:00:16.205Z,12.50
2022-11-07T14:02:54.620Z,12.48
2022-11-07T14:05:37.251Z,12.45
2022-11-07T14:08:35.669Z,12.42
2022-11-07T14:11:26.389Z,12.39
2022-11-07T14:13:56.503Z,12.37
2022-11-07T14:16:27.982Z,12.35
2022-11-07T14:19:08.462Z,12.34
2022-11-07T14:21:38.195Z,12.31
2022-11-07T14:24:24.424Z,12.29
2022-11-07T14:26:59.500Z,12.27
2022-11-07T14:29:29.470Z,12.24
2022-11-07T14:32:01.829Z,12.21
2022-11-07T14:34:34.721Z,12.19
2022-11-07T14:37:08.126Z,12.18
2022-11-07T14:39:40.882Z,12.16
2022-11-07T14:42:21.152Z,12.14
2022-11-07T14:44:55.682Z,12.13
2022-11-07T14:47:31.825Z,12.11
2022-11-07T14:50:02.418Z,12.10
2022-11-07T14:52:43.655Z,12.08
2022-11-07T14:55:21.189Z,12.05
2022-11-07T14:57:51.518Z,12.02
2022-11-07T15:00:22.415Z,12.00
2022-11-07T15:02:54.978Z,11.98
2022-11-07T15:05:28.131Z,11.96
2022-11-07T15:07:58.463Z,11.93
2022-11-07T15:10:39.799Z,11.91
2022-11-07T15:13:26.361Z,11.88
2022-11-07T15:16:13.494Z,11.85
2022-11-07T15:18:46.091Z,11.81
2022-11-07T15:21:29.029Z,11.77
2022-11-07T15:23:59.817Z,11.72
2022-11-07T15:26:35.156Z,11.68
2022-11-07T15:29:15.391Z,11.65
2022-11-07T15:31:49.703Z,11.60
2022-11-07T15:34:29.044Z,11.57
2022-11-07T15:37:12.704Z,11.54
2022-11-07T15:39:42.123Z,11.51
2022-11-07T15:42:10.166Z,11.47
2022-11-07T15:44:38.764Z,11.43
2022-11-07T15:47:16.319Z,11.40
2022-11-07T15:49:44.163Z,11.37
2022-11-07T15:52:14.254Z,11.36
2022-11-07T15:54:42.256Z,11.34
2022-11-07T15:57:13.698Z,11.31
2022-11-07T15:59:43.891Z,11.28
2022-11-07T16:02:17.134Z,11.26
2022-11-07T16:04:44.956Z,11.24
2022-11-07T16:07:18.639Z,11.22
2022-11-07T16:09:48.964Z,11.20
2022-11-07T16:12:19.304Z,11.19
2022-11-07T16:14:47.565Z,11.17
2022-11-07T16:17:19.478Z,11.16
2022-11-07T16:19:47.511Z,11.15
2022-11-07T16:22:17.730Z,11.13
2022-11-07T16:24:45.731Z,11.11
2022-11-07T16:27:19.203Z,11.09
2022-11-07T16:29:49.417Z,11.05
2022-11-07T16:32:18.603Z,11.03
2022-11-07T16:34:48.691Z,11.00
2022-11-07T16:37:16.539Z,10.97
2022-11-07T16:39:46.344Z,10.93
2022-11-07T16:42:16.482Z,10.90
2022-11-07T16:44:46.929Z,10.87
2022-11-07T16:47:17.852Z,10.84
2022-11-07T16:49:45.612Z,10.80
2022-11-07T16:52:19.073Z,10.76
2022-11-07T16:54:46.817Z,10.72
2022-11-07T16:57:18.299Z,10.68
2022-11-07T16:59:52.891Z,10.64
2022-11-07T17:02:25.059Z,10.60
2022-11-07T17:04:55.888Z,10.55
2022-11-07T17:07:25.399Z,10.51
2022-11-07T17:09:55.447Z,10.48
2022-11-07T17:12:25.145Z,10.44
2022-11-07T17:14:56.061Z,10.41
2022-11-07T17:17:23.837Z,10.38
2022-11-07T17:19:51.822Z,10.35
2022-11-07T17:22:20.507Z,10.32
2022-11-07T17:24:48.669Z,10.28
2022-11-07T17:27:25.694Z,10.25
2022-11-07T17:29:55.789Z,10.21
2022-11-07T17:32:23.586Z,10.18
2022-11-07T17:35:10.928Z,10.14
2022-11-07T17:37:39.212Z,10.11
2022-11-07T17:40:20.496Z,10.07
2022-11-07T17:42:48.443Z,10.04
2022-11-07T17:45:16.314Z,10.01
2022-11-07T17:47:44.057Z,9.98
2022-11-07T17:50:18.134Z,9.94
2022-11-07T17:52:46.027Z,9.91
2022-11-07T17:55:16.484Z,9.88
2022-11-07T17:57:47.858Z,9.85
2022-11-07T18:00:20.052Z,9.81
2022-11-07T18:02:50.968Z,9.78
2022-11-07T18:05:22.423Z,9.75
2022-11-07T18:07:50.421Z,9.73
2022-11-07T18:10:18.494Z,9.70
2022-11-07T18:12:48.580Z,9.67
2022-11-07T18:15:18.609Z,9.63
2022-11-07T18:17:46.416Z,9.60
2022-11-07T18:20:14.331Z,9.56
2022-11-07T18:22:42.282Z,9.53
2022-11-07T18:25:10.255Z,9.48
2022-11-07T18:27:38.413Z,9.45
2022-11-07T18:30:08.554Z,9.42
2022-11-07T18:32:36.811Z,9.39
2022-11-07T18:35:06.687Z,9.37
2022-11-07T18:37:34.962Z,9.36
2022-11-07T18:40:02.722Z,9.35
2022-11-07T18:42:32.106Z,9.33
2022-11-07T18:44:59.812Z,9.31
2022-11-07T18:47:31.524Z,9.30
2022-11-07T18:49:59.452Z,9.30
2022-11-07T18:52:27.418Z,9.30
2022-11-07T18:54:55.371Z,9.30
2022-11-07T18:57:25.202Z,9.29
2022-11-07T18:59:52.945Z,9.29
2022-11-07T19:02:21.100Z,9.28
2022-11-07T19:04:50.349Z,9.27
2022-11-07T19:07:18.335Z,9.26
2022-11-07T19:09:46.343Z,9.25
2022-11-07T19:12:14.100Z,9.26
2022-11-07T19:14:42.427Z,9.26
2022-11-07T19:17:10.493Z,9.27
2022-11-07T19:19:38.611Z,9.26
2022-11-07T19:22:07.589Z,9.23
2022-11-07T19:24:35.599Z,9.21
2022-11-07T19:27:03.673Z,9.19
2022-11-07T19:29:32.026Z,9.15
2022-11-07T19:31:59.878Z,9.13
2022-11-07T19:34:27.848Z,9.11
2022-11-07T19:36:55.657Z,9.08
2022-11-07T19:39:23.542Z,9.06
2022-11-07T19:41:51.480Z,9.04
2022-11-07T19:44:19.369Z,9.01
2022-11-07T19:46:49.328Z,9.00
2022-11-07T19:49:17.135Z,9.00
2022-11-07T19:51:45.088Z,8.99
2022-11-07T19:54:12.895Z,8.99
2022-11-07T19:56:40.690Z,8.97
2022-11-07T19:59:11.050Z,8.96
2022-11-07T20:01:41.461Z,8.94
2022-11-07T20:04:10.801Z,8.92
2022-11-07T20:06:39.686Z,8.91
2022-11-07T20:09:12.876Z,8.89
2022-11-07T20:11:42.309Z,8.88
2022-11-07T20:14:12.240Z,8.87
2022-11-07T20:16:40.191Z,8.85
2022-11-07T20:19:10.075Z,8.83
2022-11-07T20:21:39.990Z,8.81
2022-11-07T20:24:09.531Z,8.79
2022-11-07T20:26:39.752Z,8.77
2022-11-07T20:29:08.443Z,8.74
2022-11-07T20:31:37.945Z,8.72
2022-11-07T20:34:08.373Z,8.69
2022-11-07T20:36:36.391Z,8.67
2022-11-07T20:39:06.420Z,8.64
2022-11-07T20:41:34.886Z,8.61
2022-11-07T20:44:07.377Z,8.59
2022-11-07T20:46:40.056Z,8.57
2022-11-07T20:49:12.331Z,8.55
2022-11-07T20:51:44.840Z,8.54
2022-11-07T20:54:16.657Z,8.53
2022-11-07T20:56:46.465Z,8.52
2022-11-07T20:59:14.426Z,8.51
2022-11-07T21:01:44.445Z,8.49
2022-11-07T21:04:16.110Z,8.48
2022-11-07T21:06:46.438Z,8.46
2022-11-07T21:09:14.407Z,8.44
2022-11-07T21:11:42.729Z,8.44
2022-11-07T21:14:12.181Z,8.44
2022-11-07T21:16:40.196Z,8.45
2022-11-07T21:19:11.295Z,8.45
2022-11-07T21:21:39.235Z,8.46
2022-11-07T21:24:09.507Z,8.47
2022-11-07T21:26:40.415Z,8.49
2022-11-07T21:29:09.517Z,8.51
2022-11-07T21:31:40.448Z,8.53
2022-11-07T21:34:11.583Z,8.55
2022-11-07T21:36:39.742Z,8.58
2022-11-07T21:39:08.562Z,8.60
2022-11-07T21:41:38.902Z,8.63
2022-11-07T21:44:09.466Z,8.66
2022-11-07T21:46:38.401Z,8.69
2022-11-07T21:49:08.075Z,8.71
2022-11-07T21:51:37.911Z,8.73
2022-11-07T21:54:08.179Z,8.76
2022-11-07T21:56:39.380Z,8.78
2022-11-07T21:59:11.609Z,8.81
2022-11-07T22:01:42.660Z,8.84
2022-11-07T22:04:13.788Z,8.86
2022-11-07T22:06:45.653Z,8.88
2022-11-07T22:09:23.703Z,8.91
2022-11-07T22:11:52.308Z,8.93
2022-11-07T22:14:23.741Z,8.96
2022-11-07T22:16:51.945Z,8.98
2022-11-07T22:19:22.449Z,9.00
2022-11-07T22:21:50.181Z,9.01
2022-11-07T22:24:18.030Z,9.02
2022-11-07T22:26:47.913Z,9.03
2022-11-07T22:29:16.062Z,9.04
2022-11-07T22:31:43.806Z,9.05
2022-11-07T22:34:11.770Z,9.06
2022-11-07T22:36:39.643Z,9.07
2022-11-07T22:39:09.705Z,9.08
2022-11-07T22:41:39.806Z,9.09
2022-11-07T22:44:07.815Z,9.10
2022-11-07T22:46:37.948Z,9.11
2022-11-07T22:49:08.514Z,9.12
2022-11-07T22:51:38.368Z,9.11
2022-11-07T22:54:11.563Z,9.11
2022-11-07T22:56:41.322Z,9.11
2022-11-07T22:59:11.865Z,9.10
2022-11-07T23:01:42.932Z,9.11
2022-11-07T23:04:16.153Z,9.11
2022-11-07T23:06:46.215Z,9.12
2022-11-07T23:09:16.990Z,9.13
2022-11-07T23:11:47.156Z,9.13
2022-11-07T23:14:21.510Z,9.14
2022-11-07T23:16:52.758Z,9.15
2022-11-07T23:19:24.565Z,9.15
2022-11-07T23:21:56.635Z,9.17
2022-11-07T23:24:27.071Z,9.16
2022-11-07T23:26:57.600Z,9.15
2022-11-07T23:29:27.408Z,9.15
2022-11-07T23:31:55.363Z,9.14
2022-11-07T23:34:26.051Z,9.12
2022-11-07T23:36:55.821Z,9.10
2022-11-07T23:39:26.441Z,9.09
2022-11-07T23:41:54.405Z,9.09
2022-11-07T23:44:22.102Z,9.08
2022-11-07T23:47:08.637Z,9.08
2022-11-07T23:49:55.070Z,9.07
2022-11-07T23:52:23.668Z,9.07
2022-11-07T23:55:10.677Z,9.07
2022-11-07T23:57:58.387Z,9.06
